sensor_id;sensor_type;location;lat;lon;timestamp;P1;P2;P0
72854;PMS7003;60991;51.278;22.550;2023-04-30T00:01:08;13.25;11.75;9.25
72854;PMS7003;60991;51.278;22.550;2023-04-30T00:02:39;11.75;11.75;8.50
72854;PMS7003;60991;51.278;22.550;2023-04-30T00:04:09;17.25;14.75;9.75
72854;PMS7003;60991;51.278;22.550;2023-04-30T00:05:39;10.25;8.75;6.25
72854;PMS7003;60991;51.278;22.550;2023-04-30T00:07:09;13.00;11.00;9.00
72854;PMS7003;60991;51.278;22.550;2023-04-30T00:08:39;12.75;10.25;8.75
72854;PMS7003;60991;51.278;22.550;2023-04-30T00:10:10;10.75;10.75;9.75
72854;PMS7003;60991;51.278;22.550;2023-04-30T00:11:40;14.75;10.50;8.50
72854;PMS7003;60991;51.278;22.550;2023-04-30T00:13:10;16.33;13.33;10.00
72854;PMS7003;60991;51.278;22.550;2023-04-30T00:14:40;11.00;9.33;8.33
72854;PMS7003;60991;51.278;22.550;2023-04-30T00:16:11;16.25;12.50;9.25
72854;PMS7003;60991;51.278;22.550;2023-04-30T00:17:41;7.00;5.50;4.00
72854;PMS7003;60991;51.278;22.550;2023-04-30T00:19:11;17.67;14.00;10.33
72854;PMS7003;60991;51.278;22.550;2023-04-30T00:20:41;12.33;12.00;9.00
72854;PMS7003;60991;51.278;22.550;2023-04-30T00:22:11;10.00;8.75;8.25
72854;PMS7003;60991;51.278;22.550;2023-04-30T00:23:42;12.25;10.50;9.00
72854;PMS7003;60991;51.278;22.550;2023-04-30T00:25:12;11.50;9.50;6.50
72854;PMS7003;60991;51.278;22.550;2023-04-30T00:26:42;12.33;12.00;9.00
72854;PMS7003;60991;51.278;22.550;2023-04-30T00:28:12;15.00;13.00;10.00
72854;PMS7003;60991;51.278;22.550;2023-04-30T00:29:43;11.75;10.75;8.00
72854;PMS7003;60991;51.278;22.550;2023-04-30T00:31:13;17.25;11.25;8.75
72854;PMS7003;60991;51.278;22.550;2023-04-30T00:32:43;12.67;12.33;10.00
72854;PMS7003;60991;51.278;22.550;2023-04-30T00:34:13;11.75;11.75;9.75
72854;PMS7003;60991;51.278;22.550;2023-04-30T00:35:43;11.00;10.00;7.33
72854;PMS7003;60991;51.278;22.550;2023-04-30T00:37:14;13.25;11.25;9.25
72854;PMS7003;60991;51.278;22.550;2023-04-30T00:38:44;17.00;13.33;10.33
72854;PMS7003;60991;51.278;22.550;2023-04-30T00:40:14;16.00;14.67;10.00
72854;PMS7003;60991;51.278;22.550;2023-04-30T00:41:44;16.25;11.75;10.00
72854;PMS7003;60991;51.278;22.550;2023-04-30T00:43:15;16.25;14.00;10.50
72854;PMS7003;60991;51.278;22.550;2023-04-30T00:44:45;11.00;11.00;8.50
72854;PMS7003;60991;51.278;22.550;2023-04-30T00:46:15;11.50;10.50;9.25
72854;PMS7003;60991;51.278;22.550;2023-04-30T00:47:45;17.25;15.75;11.00
72854;PMS7003;60991;51.278;22.550;2023-04-30T00:49:16;14.75;14.25;9.50
72854;PMS7003;60991;51.278;22.550;2023-04-30T00:50:46;16.25;14.75;11.00
72854;PMS7003;60991;51.278;22.550;2023-04-30T00:52:16;12.33;12.33;10.33
72854;PMS7003;60991;51.278;22.550;2023-04-30T00:53:47;16.25;15.00;11.00
72854;PMS7003;60991;51.278;22.550;2023-04-30T00:55:17;15.25;13.75;10.25
72854;PMS7003;60991;51.278;22.550;2023-04-30T00:56:47;11.25;10.50;9.00
72854;PMS7003;60991;51.278;22.550;2023-04-30T00:58:18;14.50;14.50;8.00
72854;PMS7003;60991;51.278;22.550;2023-04-30T00:59:48;14.75;11.00;9.75
72854;PMS7003;60991;51.278;22.550;2023-04-30T01:01:19;13.50;12.00;9.00
72854;PMS7003;60991;51.278;22.550;2023-04-30T01:02:49;14.50;11.75;9.25
72854;PMS7003;60991;51.278;22.550;2023-04-30T01:04:19;15.25;13.00;9.25
72854;PMS7003;60991;51.278;22.550;2023-04-30T01:05:50;12.75;9.50;8.25
72854;PMS7003;60991;51.278;22.550;2023-04-30T01:07:20;10.00;10.00;8.67
72854;PMS7003;60991;51.278;22.550;2023-04-30T01:08:50;11.75;10.00;8.25
72854;PMS7003;60991;51.278;22.550;2023-04-30T01:10:21;11.25;9.00;7.75
72854;PMS7003;60991;51.278;22.550;2023-04-30T01:11:59;12.00;9.75;7.75
72854;PMS7003;60991;51.278;22.550;2023-04-30T01:14:17;10.00;10.00;8.25
72854;PMS7003;60991;51.278;22.550;2023-04-30T01:16:06;9.75;9.00;7.50
72854;PMS7003;60991;51.278;22.550;2023-04-30T01:20:03;10.25;10.25;8.50
72854;PMS7003;60991;51.278;22.550;2023-04-30T01:21:38;11.00;9.25;8.25
72854;PMS7003;60991;51.278;22.550;2023-04-30T01:28:43;10.25;8.00;6.75
72854;PMS7003;60991;51.278;22.550;2023-04-30T01:30:14;10.50;9.25;8.00
72854;PMS7003;60991;51.278;22.550;2023-04-30T01:31:47;9.25;8.50;7.00
72854;PMS7003;60991;51.278;22.550;2023-04-30T01:33:17;14.00;9.00;7.33
72854;PMS7003;60991;51.278;22.550;2023-04-30T01:34:47;9.00;7.67;6.33
72854;PMS7003;60991;51.278;22.550;2023-04-30T01:38:01;9.25;9.25;6.00
72854;PMS7003;60991;51.278;22.550;2023-04-30T01:40:02;10.00;8.50;7.25
72854;PMS7003;60991;51.278;22.550;2023-04-30T01:45:18;6.75;4.50;4.00
72854;PMS7003;60991;51.278;22.550;2023-04-30T01:47:03;9.75;8.25;7.50
72854;PMS7003;60991;51.278;22.550;2023-04-30T01:50:39;7.75;7.75;6.25
72854;PMS7003;60991;51.278;22.550;2023-04-30T01:52:25;10.75;9.25;7.00
72854;PMS7003;60991;51.278;22.550;2023-04-30T01:54:05;8.25;8.25;7.00
72854;PMS7003;60991;51.278;22.550;2023-04-30T01:55:50;10.00;10.00;8.25
72854;PMS7003;60991;51.278;22.550;2023-04-30T01:57:40;11.00;9.00;8.25
72854;PMS7003;60991;51.278;22.550;2023-04-30T01:59:13;11.00;9.50;6.25
72854;PMS7003;60991;51.278;22.550;2023-04-30T02:00:44;7.75;6.00;6.00
72854;PMS7003;60991;51.278;22.550;2023-04-30T02:02:14;9.50;5.00;4.00
72854;PMS7003;60991;51.278;22.550;2023-04-30T02:03:44;8.67;8.67;6.67
72854;PMS7003;60991;51.278;22.550;2023-04-30T02:05:15;9.33;8.33;8.00
72854;PMS7003;60991;51.278;22.550;2023-04-30T02:06:45;9.00;7.75;5.00
72854;PMS7003;60991;51.278;22.550;2023-04-30T02:08:15;9.25;6.00;5.00
72854;PMS7003;60991;51.278;22.550;2023-04-30T02:09:45;8.00;8.00;6.25
72854;PMS7003;60991;51.278;22.550;2023-04-30T02:11:15;11.25;10.00;6.25
72854;PMS7003;60991;51.278;22.550;2023-04-30T02:12:46;8.67;8.67;8.00
72854;PMS7003;60991;51.278;22.550;2023-04-30T02:14:16;8.75;8.75;5.25
72854;PMS7003;60991;51.278;22.550;2023-04-30T02:15:46;7.50;7.50;6.50
72854;PMS7003;60991;51.278;22.550;2023-04-30T02:17:16;7.67;5.67;4.00
72854;PMS7003;60991;51.278;22.550;2023-04-30T02:18:46;9.33;9.33;7.33
72854;PMS7003;60991;51.278;22.550;2023-04-30T02:20:17;8.75;5.50;5.00
72854;PMS7003;60991;51.278;22.550;2023-04-30T02:21:47;6.50;6.50;5.00
72854;PMS7003;60991;51.278;22.550;2023-04-30T02:23:17;8.50;6.00;5.00
72854;PMS7003;60991;51.278;22.550;2023-04-30T02:24:47;7.25;7.25;6.50
72854;PMS7003;60991;51.278;22.550;2023-04-30T02:26:17;8.50;7.50;6.25
72854;PMS7003;60991;51.278;22.550;2023-04-30T02:27:48;10.25;9.00;5.25
72854;PMS7003;60991;51.278;22.550;2023-04-30T02:29:18;12.00;6.25;5.00
72854;PMS7003;60991;51.278;22.550;2023-04-30T02:30:48;9.00;9.00;7.00
72854;PMS7003;60991;51.278;22.550;2023-04-30T02:32:18;9.25;7.50;6.25
72854;PMS7003;60991;51.278;22.550;2023-04-30T02:33:48;10.25;9.50;7.50
72854;PMS7003;60991;51.278;22.550;2023-04-30T02:35:19;5.75;4.75;4.00
72854;PMS7003;60991;51.278;22.550;2023-04-30T02:36:49;9.50;7.00;5.25
72854;PMS7003;60991;51.278;22.550;2023-04-30T02:38:19;8.00;8.00;7.00
72854;PMS7003;60991;51.278;22.550;2023-04-30T02:39:50;9.75;8.00;5.00
72854;PMS7003;60991;51.278;22.550;2023-04-30T02:41:20;9.00;6.50;4.00
72854;PMS7003;60991;51.278;22.550;2023-04-30T02:42:51;10.00;6.25;5.75
72854;PMS7003;60991;51.278;22.550;2023-04-30T02:44:21;7.00;5.50;5.00
72854;PMS7003;60991;51.278;22.550;2023-04-30T02:45:51;7.50;7.50;7.00
72854;PMS7003;60991;51.278;22.550;2023-04-30T02:47:21;11.67;8.00;7.33
72854;PMS7003;60991;51.278;22.550;2023-04-30T02:48:51;5.75;5.00;4.25
72854;PMS7003;60991;51.278;22.550;2023-04-30T02:50:22;10.67;7.33;5.67
72854;PMS7003;60991;51.278;22.550;2023-04-30T02:51:52;9.00;7.33;5.00
72854;PMS7003;60991;51.278;22.550;2023-04-30T02:53:22;9.25;9.25;6.50
72854;PMS7003;60991;51.278;22.550;2023-04-30T02:54:53;10.00;8.50;6.25
72854;PMS7003;60991;51.278;22.550;2023-04-30T02:56:23;9.00;8.33;5.33
72854;PMS7003;60991;51.278;22.550;2023-04-30T02:57:53;9.00;7.00;5.75
72854;PMS7003;60991;51.278;22.550;2023-04-30T02:59:23;12.50;9.00;6.50
72854;PMS7003;60991;51.278;22.550;2023-04-30T03:00:53;9.25;9.25;8.00
72854;PMS7003;60991;51.278;22.550;2023-04-30T03:02:24;12.00;9.33;7.67
72854;PMS7003;60991;51.278;22.550;2023-04-30T03:03:54;9.75;6.25;6.00
72854;PMS7003;60991;51.278;22.550;2023-04-30T03:05:24;8.25;6.25;6.25
72854;PMS7003;60991;51.278;22.550;2023-04-30T03:06:55;10.00;9.00;8.00
72854;PMS7003;60991;51.278;22.550;2023-04-30T03:08:25;9.00;7.00;5.25
72854;PMS7003;60991;51.278;22.550;2023-04-30T03:09:55;11.50;7.00;5.50
72854;PMS7003;60991;51.278;22.550;2023-04-30T03:11:26;10.00;7.50;5.00
72854;PMS7003;60991;51.278;22.550;2023-04-30T03:12:56;9.25;6.25;5.00
72854;PMS7003;60991;51.278;22.550;2023-04-30T03:14:26;9.00;9.00;8.00
72854;PMS7003;60991;51.278;22.550;2023-04-30T03:16:00;7.50;7.25;6.00
72854;PMS7003;60991;51.278;22.550;2023-04-30T03:17:31;8.00;8.00;5.00
72854;PMS7003;60991;51.278;22.550;2023-04-30T03:19:01;6.00;5.25;5.00
72854;PMS7003;60991;51.278;22.550;2023-04-30T03:20:31;10.33;9.00;6.67
72854;PMS7003;60991;51.278;22.550;2023-04-30T03:22:01;9.50;7.00;5.25
72854;PMS7003;60991;51.278;22.550;2023-04-30T03:23:32;9.00;8.00;5.00
72854;PMS7003;60991;51.278;22.550;2023-04-30T03:25:02;5.25;5.25;4.50
72854;PMS7003;60991;51.278;22.550;2023-04-30T03:26:32;6.00;5.75;4.25
72854;PMS7003;60991;51.278;22.550;2023-04-30T03:28:02;7.75;7.75;6.00
72854;PMS7003;60991;51.278;22.550;2023-04-30T03:29:33;7.75;6.50;5.00
72854;PMS7003;60991;51.278;22.550;2023-04-30T03:31:03;9.00;6.67;6.00
72854;PMS7003;60991;51.278;22.550;2023-04-30T03:32:33;9.00;9.00;8.00
72854;PMS7003;60991;51.278;22.550;2023-04-30T03:34:03;3.00;3.00;3.00
72854;PMS7003;60991;51.278;22.550;2023-04-30T03:35:34;8.00;8.00;6.33
72854;PMS7003;60991;51.278;22.550;2023-04-30T03:37:04;9.50;8.25;7.50
72854;PMS7003;60991;51.278;22.550;2023-04-30T03:38:34;10.00;8.00;6.00
72854;PMS7003;60991;51.278;22.550;2023-04-30T03:40:04;10.00;10.00;8.67
72854;PMS7003;60991;51.278;22.550;2023-04-30T03:41:35;4.75;4.00;4.00
72854;PMS7003;60991;51.278;22.550;2023-04-30T03:43:05;6.50;6.25;5.00
72854;PMS7003;60991;51.278;22.550;2023-04-30T03:44:36;9.33;7.33;6.33
72854;PMS7003;60991;51.278;22.550;2023-04-30T03:46:06;10.00;10.00;9.00
72854;PMS7003;60991;51.278;22.550;2023-04-30T03:47:36;12.00;11.00;8.33
72854;PMS7003;60991;51.278;22.550;2023-04-30T03:49:06;7.00;7.00;4.75
72854;PMS7003;60991;51.278;22.550;2023-04-30T03:50:36;9.50;8.25;8.00
72854;PMS7003;60991;51.278;22.550;2023-04-30T03:52:07;10.25;8.50;8.00
72854;PMS7003;60991;51.278;22.550;2023-04-30T03:53:37;9.25;9.25;6.25
72854;PMS7003;60991;51.278;22.550;2023-04-30T03:55:07;10.25;10.00;8.00
72854;PMS7003;60991;51.278;22.550;2023-04-30T03:56:38;9.50;6.75;5.00
72854;PMS7003;60991;51.278;22.550;2023-04-30T03:58:08;7.75;6.25;5.00
72854;PMS7003;60991;51.278;22.550;2023-04-30T03:59:39;5.00;5.00;5.00
72854;PMS7003;60991;51.278;22.550;2023-04-30T04:01:09;10.50;9.25;6.50
72854;PMS7003;60991;51.278;22.550;2023-04-30T04:02:39;13.00;10.50;7.50
72854;PMS7003;60991;51.278;22.550;2023-04-30T04:04:10;9.75;8.00;5.75
72854;PMS7003;60991;51.278;22.550;2023-04-30T04:05:40;11.25;10.00;8.00
72854;PMS7003;60991;51.278;22.550;2023-04-30T04:07:10;11.50;8.75;7.50
72854;PMS7003;60991;51.278;22.550;2023-04-30T04:08:41;11.00;9.00;5.75
72854;PMS7003;60991;51.278;22.550;2023-04-30T04:10:11;8.67;8.33;7.00
72854;PMS7003;60991;51.278;22.550;2023-04-30T04:11:41;14.25;8.50;6.00
72854;PMS7003;60991;51.278;22.550;2023-04-30T04:13:11;9.50;9.00;8.50
72854;PMS7003;60991;51.278;22.550;2023-04-30T04:14:41;11.50;10.00;6.25
72854;PMS7003;60991;51.278;22.550;2023-04-30T04:16:12;7.50;7.50;6.50
72854;PMS7003;60991;51.278;22.550;2023-04-30T04:17:42;9.00;6.50;5.50
72854;PMS7003;60991;51.278;22.550;2023-04-30T04:19:12;15.00;12.00;10.00
72854;PMS7003;60991;51.278;22.550;2023-04-30T04:20:42;9.67;9.67;7.33
72854;PMS7003;60991;51.278;22.550;2023-04-30T04:22:13;10.25;8.00;6.75
72854;PMS7003;60991;51.278;22.550;2023-04-30T04:23:43;10.33;10.33;7.67
72854;PMS7003;60991;51.278;22.550;2023-04-30T04:25:13;9.00;9.00;8.00
72854;PMS7003;60991;51.278;22.550;2023-04-30T04:26:44;10.00;7.33;7.00
72854;PMS7003;60991;51.278;22.550;2023-04-30T04:28:14;12.50;10.00;7.25
72854;PMS7003;60991;51.278;22.550;2023-04-30T04:29:45;14.50;10.75;7.00
72854;PMS7003;60991;51.278;22.550;2023-04-30T04:31:15;8.00;7.33;5.00
72854;PMS7003;60991;51.278;22.550;2023-04-30T04:32:45;10.33;10.33;8.00
72854;PMS7003;60991;51.278;22.550;2023-04-30T04:34:15;8.00;8.00;7.00
72854;PMS7003;60991;51.278;22.550;2023-04-30T04:35:46;7.00;7.00;5.00
72854;PMS7003;60991;51.278;22.550;2023-04-30T04:37:16;10.75;8.50;8.00
72854;PMS7003;60991;51.278;22.550;2023-04-30T04:38:46;8.00;8.00;7.00
72854;PMS7003;60991;51.278;22.550;2023-04-30T04:40:17;9.00;7.67;6.33
72854;PMS7003;60991;51.278;22.550;2023-04-30T04:41:47;8.00;8.00;5.00
72854;PMS7003;60991;51.278;22.550;2023-04-30T04:43:17;9.67;8.00;7.00
72854;PMS7003;60991;51.278;22.550;2023-04-30T04:44:48;10.00;7.50;5.00
72854;PMS7003;60991;51.278;22.550;2023-04-30T04:46:18;7.33;5.00;4.00
72854;PMS7003;60991;51.278;22.550;2023-04-30T04:47:48;13.00;9.75;8.50
72854;PMS7003;60991;51.278;22.550;2023-04-30T04:49:18;9.75;7.50;5.50
72854;PMS7003;60991;51.278;22.550;2023-04-30T04:50:49;8.50;7.75;5.00
72854;PMS7003;60991;51.278;22.550;2023-04-30T04:52:19;11.50;11.50;7.50
72854;PMS7003;60991;51.278;22.550;2023-04-30T04:53:49;10.00;10.00;8.67
72854;PMS7003;60991;51.278;22.550;2023-04-30T04:55:19;12.00;9.33;7.00
72854;PMS7003;60991;51.278;22.550;2023-04-30T04:56:50;12.00;9.00;7.00
72854;PMS7003;60991;51.278;22.550;2023-04-30T04:58:20;9.00;8.00;5.00
72854;PMS7003;60991;51.278;22.550;2023-04-30T04:59:50;11.67;11.67;5.00
72854;PMS7003;60991;51.278;22.550;2023-04-30T05:01:20;7.00;7.00;5.00
72854;PMS7003;60991;51.278;22.550;2023-04-30T05:02:50;8.00;6.33;5.33
72854;PMS7003;60991;51.278;22.550;2023-04-30T05:04:21;10.33;9.00;7.33
72854;PMS7003;60991;51.278;22.550;2023-04-30T05:05:51;9.50;9.50;8.00
72854;PMS7003;60991;51.278;22.550;2023-04-30T05:07:21;10.25;10.25;8.75
72854;PMS7003;60991;51.278;22.550;2023-04-30T05:08:51;9.00;9.00;7.33
72854;PMS7003;60991;51.278;22.550;2023-04-30T05:10:21;9.75;9.75;8.00
72854;PMS7003;60991;51.278;22.550;2023-04-30T05:11:52;9.33;9.33;7.00
72854;PMS7003;60991;51.278;22.550;2023-04-30T05:13:22;9.67;6.00;5.67
72854;PMS7003;60991;51.278;22.550;2023-04-30T05:14:52;15.00;10.75;8.25
72854;PMS7003;60991;51.278;22.550;2023-04-30T05:16:22;10.00;9.00;8.33
72854;PMS7003;60991;51.278;22.550;2023-04-30T05:17:52;11.00;6.67;5.33
72854;PMS7003;60991;51.278;22.550;2023-04-30T05:19:23;14.00;11.00;8.33
72854;PMS7003;60991;51.278;22.550;2023-04-30T05:20:53;12.00;10.00;8.25
72854;PMS7003;60991;51.278;22.550;2023-04-30T05:22:23;10.00;9.33;7.33
72854;PMS7003;60991;51.278;22.550;2023-04-30T05:23:54;9.00;8.00;7.00
72854;PMS7003;60991;51.278;22.550;2023-04-30T05:25:24;10.25;8.25;7.00
72854;PMS7003;60991;51.278;22.550;2023-04-30T05:26:54;11.33;10.33;8.33
72854;PMS7003;60991;51.278;22.550;2023-04-30T05:28:25;11.25;10.75;8.75
72854;PMS7003;60991;51.278;22.550;2023-04-30T05:29:55;11.00;10.00;8.33
72854;PMS7003;60991;51.278;22.550;2023-04-30T05:31:25;9.25;9.25;8.25
72854;PMS7003;60991;51.278;22.550;2023-04-30T05:32:56;12.50;11.50;9.00
72854;PMS7003;60991;51.278;22.550;2023-04-30T05:34:26;11.50;10.00;9.00
72854;PMS7003;60991;51.278;22.550;2023-04-30T05:35:56;10.67;10.67;8.33
72854;PMS7003;60991;51.278;22.550;2023-04-30T05:37:27;16.33;12.00;10.00
72854;PMS7003;60991;51.278;22.550;2023-04-30T05:38:57;15.67;13.33;10.00
72854;PMS7003;60991;51.278;22.550;2023-04-30T05:40:27;10.50;10.50;8.75
72854;PMS7003;60991;51.278;22.550;2023-04-30T05:41:58;15.00;13.50;9.00
72854;PMS7003;60991;51.278;22.550;2023-04-30T05:43:28;14.75;12.75;10.50
72854;PMS7003;60991;51.278;22.550;2023-04-30T05:44:58;16.00;13.67;10.00
72854;PMS7003;60991;51.278;22.550;2023-04-30T05:46:29;13.00;11.00;9.00
72854;PMS7003;60991;51.278;22.550;2023-04-30T05:47:59;16.25;13.50;10.00
72854;PMS7003;60991;51.278;22.550;2023-04-30T05:49:29;13.00;13.00;10.67
72854;PMS7003;60991;51.278;22.550;2023-04-30T05:50:59;12.00;12.00;9.25
72854;PMS7003;60991;51.278;22.550;2023-04-30T05:52:29;15.00;10.00;8.00
72854;PMS7003;60991;51.278;22.550;2023-04-30T05:54:00;13.50;13.25;9.50
72854;PMS7003;60991;51.278;22.550;2023-04-30T05:55:30;16.00;13.50;11.00
72854;PMS7003;60991;51.278;22.550;2023-04-30T05:57:00;11.33;9.00;4.00
72854;PMS7003;60991;51.278;22.550;2023-04-30T05:58:31;14.50;12.25;10.00
72854;PMS7003;60991;51.278;22.550;2023-04-30T06:00:01;17.67;15.00;12.00
72854;PMS7003;60991;51.278;22.550;2023-04-30T06:01:31;17.25;15.00;12.25
72854;PMS7003;60991;51.278;22.550;2023-04-30T06:03:01;19.67;16.00;12.67
72854;PMS7003;60991;51.278;22.550;2023-04-30T06:04:32;19.50;19.25;14.00
72854;PMS7003;60991;51.278;22.550;2023-04-30T06:06:02;19.25;17.75;12.75
72854;PMS7003;60991;51.278;22.550;2023-04-30T06:07:33;18.00;17.50;13.00
72854;PMS7003;60991;51.278;22.550;2023-04-30T06:09:03;19.00;19.00;14.75
72854;PMS7003;60991;51.278;22.550;2023-04-30T06:10:33;21.50;18.25;13.50
72854;PMS7003;60991;51.278;22.550;2023-04-30T06:12:04;29.25;22.50;16.75
72854;PMS7003;60991;51.278;22.550;2023-04-30T06:13:34;25.00;23.75;14.50
72854;PMS7003;60991;51.278;22.550;2023-04-30T06:15:05;30.75;29.00;21.00
72854;PMS7003;60991;51.278;22.550;2023-04-30T06:16:35;33.75;27.00;18.50
72854;PMS7003;60991;51.278;22.550;2023-04-30T06:18:07;34.25;28.75;17.75
72854;PMS7003;60991;51.278;22.550;2023-04-30T06:19:37;24.33;20.00;13.67
72854;PMS7003;60991;51.278;22.550;2023-04-30T06:21:07;35.50;31.50;21.00
72854;PMS7003;60991;51.278;22.550;2023-04-30T06:22:37;35.67;31.33;20.00
72854;PMS7003;60991;51.278;22.550;2023-04-30T06:24:07;30.33;27.67;20.00
72854;PMS7003;60991;51.278;22.550;2023-04-30T06:25:38;24.00;24.00;19.25
72854;PMS7003;60991;51.278;22.550;2023-04-30T06:27:08;27.25;27.25;19.25
72854;PMS7003;60991;51.278;22.550;2023-04-30T06:28:38;30.00;29.00;17.00
72854;PMS7003;60991;51.278;22.550;2023-04-30T06:30:09;35.75;27.50;18.50
72854;PMS7003;60991;51.278;22.550;2023-04-30T06:31:39;34.50;32.50;21.00
72854;PMS7003;60991;51.278;22.550;2023-04-30T06:33:09;35.33;31.00;22.00
72854;PMS7003;60991;51.278;22.550;2023-04-30T06:34:39;42.00;32.33;22.00
72854;PMS7003;60991;51.278;22.550;2023-04-30T06:36:10;26.00;26.00;19.67
72854;PMS7003;60991;51.278;22.550;2023-04-30T06:37:40;38.50;33.25;21.00
72854;PMS7003;60991;51.278;22.550;2023-04-30T06:39:12;36.00;30.33;19.67
72854;PMS7003;60991;51.278;22.550;2023-04-30T06:40:45;40.75;32.75;20.25
72854;PMS7003;60991;51.278;22.550;2023-04-30T06:42:15;38.00;32.75;22.00
72854;PMS7003;60991;51.278;22.550;2023-04-30T06:43:46;36.25;31.00;21.50
72854;PMS7003;60991;51.278;22.550;2023-04-30T06:45:16;36.33;32.00;19.33
72854;PMS7003;60991;51.278;22.550;2023-04-30T06:46:46;30.00;30.00;20.00
72854;PMS7003;60991;51.278;22.550;2023-04-30T06:48:16;42.67;36.00;22.00
72854;PMS7003;60991;51.278;22.550;2023-04-30T06:49:47;31.50;26.00;19.00
72854;PMS7003;60991;51.278;22.550;2023-04-30T06:51:17;34.33;30.00;20.67
72854;PMS7003;60991;51.278;22.550;2023-04-30T06:52:47;32.00;29.67;19.67
72854;PMS7003;60991;51.278;22.550;2023-04-30T06:54:17;36.00;33.75;22.00
72854;PMS7003;60991;51.278;22.550;2023-04-30T06:55:47;42.00;34.00;22.00
72854;PMS7003;60991;51.278;22.550;2023-04-30T06:57:18;38.00;35.25;21.75
72854;PMS7003;60991;51.278;22.550;2023-04-30T06:58:48;40.00;36.00;22.00
72854;PMS7003;60991;51.278;22.550;2023-04-30T07:00:18;43.00;36.67;24.33
72854;PMS7003;60991;51.278;22.550;2023-04-30T07:01:48;36.50;34.25;22.00
72854;PMS7003;60991;51.278;22.550;2023-04-30T07:03:19;47.25;37.75;22.25
72854;PMS7003;60991;51.278;22.550;2023-04-30T07:04:49;44.00;37.33;24.67
72854;PMS7003;60991;51.278;22.550;2023-04-30T07:06:19;45.00;38.25;23.25
72854;PMS7003;60991;51.278;22.550;2023-04-30T07:07:49;49.25;39.25;24.25
72854;PMS7003;60991;51.278;22.550;2023-04-30T07:09:20;49.75;38.00;24.25
72854;PMS7003;60991;51.278;22.550;2023-04-30T07:10:50;45.33;37.67;24.67
72854;PMS7003;60991;51.278;22.550;2023-04-30T07:12:20;41.33;36.33;21.33
72854;PMS7003;60991;51.278;22.550;2023-04-30T07:13:50;43.00;37.00;23.50
72854;PMS7003;60991;51.278;22.550;2023-04-30T07:15:20;44.67;34.67;23.00
72854;PMS7003;60991;51.278;22.550;2023-04-30T07:16:51;40.33;34.00;22.00
72854;PMS7003;60991;51.278;22.550;2023-04-30T07:18:22;45.50;39.50;22.00
72854;PMS7003;60991;51.278;22.550;2023-04-30T07:19:52;40.25;34.25;22.00
72854;PMS7003;60991;51.278;22.550;2023-04-30T07:21:22;42.67;37.00;23.00
72854;PMS7003;60991;51.278;22.550;2023-04-30T07:22:52;50.67;38.67;24.00
72854;PMS7003;60991;51.278;22.550;2023-04-30T07:24:22;40.67;37.00;25.00
72854;PMS7003;60991;51.278;22.550;2023-04-30T07:25:53;40.25;34.50;23.00
72854;PMS7003;60991;51.278;22.550;2023-04-30T07:27:23;34.67;30.33;23.33
72854;PMS7003;60991;51.278;22.550;2023-04-30T07:28:53;47.25;37.75;25.25
72854;PMS7003;60991;51.278;22.550;2023-04-30T07:30:23;41.00;37.25;23.75
72854;PMS7003;60991;51.278;22.550;2023-04-30T07:31:54;48.00;40.50;25.00
72854;PMS7003;60991;51.278;22.550;2023-04-30T07:33:24;48.75;36.50;23.00
72854;PMS7003;60991;51.278;22.550;2023-04-30T07:34:54;42.33;37.33;24.33
72854;PMS7003;60991;51.278;22.550;2023-04-30T07:36:25;45.33;36.00;22.33
72854;PMS7003;60991;51.278;22.550;2023-04-30T07:37:55;46.00;38.75;25.00
72854;PMS7003;60991;51.278;22.550;2023-04-30T07:39:26;40.00;34.67;24.00
72854;PMS7003;60991;51.278;22.550;2023-04-30T07:40:56;44.50;36.75;24.50
72854;PMS7003;60991;51.278;22.550;2023-04-30T07:42:26;42.67;37.33;24.67
72854;PMS7003;60991;51.278;22.550;2023-04-30T07:43:56;46.00;37.33;25.00
72854;PMS7003;60991;51.278;22.550;2023-04-30T07:45:27;43.00;34.33;23.33
72854;PMS7003;60991;51.278;22.550;2023-04-30T07:46:57;47.00;37.00;22.33
72854;PMS7003;60991;51.278;22.550;2023-04-30T07:48:27;51.25;40.50;26.00
72854;PMS7003;60991;51.278;22.550;2023-04-30T07:49:57;48.00;37.33;23.67
72854;PMS7003;60991;51.278;22.550;2023-04-30T07:51:28;47.75;38.75;23.75
72854;PMS7003;60991;51.278;22.550;2023-04-30T07:52:58;43.25;36.25;25.00
72854;PMS7003;60991;51.278;22.550;2023-04-30T07:54:29;46.75;38.50;25.25
72854;PMS7003;60991;51.278;22.550;2023-04-30T07:55:59;38.33;35.67;25.67
72854;PMS7003;60991;51.278;22.550;2023-04-30T07:57:30;50.00;37.67;25.00
72854;PMS7003;60991;51.278;22.550;2023-04-30T07:59:00;53.33;40.33;25.00
72854;PMS7003;60991;51.278;22.550;2023-04-30T08:00:30;41.00;36.00;23.33
72854;PMS7003;60991;51.278;22.550;2023-04-30T08:02:00;48.25;37.50;26.00
72854;PMS7003;60991;51.278;22.550;2023-04-30T08:03:31;41.50;37.00;25.00
72854;PMS7003;60991;51.278;22.550;2023-04-30T08:05:01;53.67;41.67;24.67
72854;PMS7003;60991;51.278;22.550;2023-04-30T08:06:31;41.50;37.25;25.00
72854;PMS7003;60991;51.278;22.550;2023-04-30T08:08:01;47.67;37.33;25.00
72854;PMS7003;60991;51.278;22.550;2023-04-30T08:09:31;51.00;38.33;25.00
72854;PMS7003;60991;51.278;22.550;2023-04-30T08:11:02;48.33;40.33;24.67
72854;PMS7003;60991;51.278;22.550;2023-04-30T08:12:34;53.25;43.00;25.00
72854;PMS7003;60991;51.278;22.550;2023-04-30T08:14:05;54.50;42.25;25.50
72854;PMS7003;60991;51.278;22.550;2023-04-30T08:15:35;48.00;38.33;25.00
72854;PMS7003;60991;51.278;22.550;2023-04-30T08:17:05;54.50;44.25;25.75
72854;PMS7003;60991;51.278;22.550;2023-04-30T08:18:35;56.33;45.00;27.33
72854;PMS7003;60991;51.278;22.550;2023-04-30T08:20:06;52.50;39.50;25.00
72854;PMS7003;60991;51.278;22.550;2023-04-30T08:21:36;48.25;38.25;25.00
72854;PMS7003;60991;51.278;22.550;2023-04-30T08:23:07;50.50;39.00;25.00
72854;PMS7003;60991;51.278;22.550;2023-04-30T08:24:37;57.00;44.00;25.00
72854;PMS7003;60991;51.278;22.550;2023-04-30T08:26:08;48.67;40.00;25.00
72854;PMS7003;60991;51.278;22.550;2023-04-30T08:27:38;52.75;39.25;25.00
72854;PMS7003;60991;51.278;22.550;2023-04-30T08:29:08;53.00;40.50;25.00
72854;PMS7003;60991;51.278;22.550;2023-04-30T08:30:39;50.33;39.67;25.33
72854;PMS7003;60991;51.278;22.550;2023-04-30T08:32:09;44.00;37.50;24.00
72854;PMS7003;60991;51.278;22.550;2023-04-30T08:33:39;55.50;43.50;27.00
72854;PMS7003;60991;51.278;22.550;2023-04-30T08:35:09;51.75;39.00;24.75
72854;PMS7003;60991;51.278;22.550;2023-04-30T08:36:39;52.67;44.00;27.00
72854;PMS7003;60991;51.278;22.550;2023-04-30T08:38:10;52.00;43.33;28.00
72854;PMS7003;60991;51.278;22.550;2023-04-30T08:39:40;45.00;38.00;25.33
72854;PMS7003;60991;51.278;22.550;2023-04-30T08:41:11;52.67;43.67;25.67
72854;PMS7003;60991;51.278;22.550;2023-04-30T08:42:43;52.25;41.75;25.25
72854;PMS7003;60991;51.278;22.550;2023-04-30T08:44:23;50.50;39.75;27.50
72854;PMS7003;60991;51.278;22.550;2023-04-30T08:45:56;48.25;40.00;25.25
72854;PMS7003;60991;51.278;22.550;2023-04-30T08:47:26;49.25;40.00;25.50